sensor_id;sensor_type;location;lat;lon;timestamp;pressure;altitude;pressure_sealevel;temperature
20730;BMP280;10526;50.850;12.928;2023-07-08T00:02:39;98392.19;;;15.62
20730;BMP280;10526;50.850;12.928;2023-07-08T00:07:01;98383.13;;;15.56
20730;BMP280;10526;50.850;12.928;2023-07-08T00:11:23;98371.88;;;15.45
20730;BMP280;10526;50.850;12.928;2023-07-08T00:15:45;98379.75;;;15.36
20730;BMP280;10526;50.850;12.928;2023-07-08T00:20:18;98379.91;;;15.29
20730;BMP280;10526;50.850;12.928;2023-07-08T00:24:44;98365.81;;;15.25
20730;BMP280;10526;50.850;12.928;2023-07-08T00:29:09;98368.16;;;15.22
20730;BMP280;10526;50.850;12.928;2023-07-08T00:33:35;98365.97;;;15.17
20730;BMP280;10526;50.850;12.928;2023-07-08T00:37:57;98364.19;;;15.11
20730;BMP280;10526;50.850;12.928;2023-07-08T00:42:25;98367.03;;;15.04
20730;BMP280;10526;50.850;12.928;2023-07-08T00:47:09;98369.09;;;14.96
20730;BMP280;10526;50.850;12.928;2023-07-08T00:51:33;98368.47;;;14.88
20730;BMP280;10526;50.850;12.928;2023-07-08T00:56:25;98376.53;;;14.88
20730;BMP280;10526;50.850;12.928;2023-07-08T01:00:44;98370.91;;;14.83
20730;BMP280;10526;50.850;12.928;2023-07-08T01:05:12;98369.59;;;14.71
20730;BMP280;10526;50.850;12.928;2023-07-08T01:09:40;98369.81;;;14.60
20730;BMP280;10526;50.850;12.928;2023-07-08T01:14:05;98362.25;;;14.55
20730;BMP280;10526;50.850;12.928;2023-07-08T01:18:28;98369.25;;;14.49
20730;BMP280;10526;50.850;12.928;2023-07-08T01:22:50;98356.06;;;14.39
20730;BMP280;10526;50.850;12.928;2023-07-08T01:27:16;98351.66;;;14.28
20730;BMP280;10526;50.850;12.928;2023-07-08T01:31:39;98354.41;;;14.25
20730;BMP280;10526;50.850;12.928;2023-07-08T01:36:02;98345.31;;;14.19
20730;BMP280;10526;50.850;12.928;2023-07-08T01:44:47;98335.59;;;14.05
20730;BMP280;10526;50.850;12.928;2023-07-08T01:49:08;98340.66;;;13.99
20730;BMP280;10526;50.850;12.928;2023-07-08T01:53:43;98334.25;;;13.97
20730;BMP280;10526;50.850;12.928;2023-07-08T01:58:05;98332.81;;;13.89
20730;BMP280;10526;50.850;12.928;2023-07-08T02:02:26;98333.72;;;13.82
20730;BMP280;10526;50.850;12.928;2023-07-08T02:06:54;98328.34;;;13.82
20730;BMP280;10526;50.850;12.928;2023-07-08T02:11:16;98331.13;;;13.75
20730;BMP280;10526;50.850;12.928;2023-07-08T02:15:38;98326.25;;;13.70
20730;BMP280;10526;50.850;12.928;2023-07-08T02:20:00;98325.19;;;13.64
20730;BMP280;10526;50.850;12.928;2023-07-08T02:24:23;98332.50;;;13.60
20730;BMP280;10526;50.850;12.928;2023-07-08T02:28:45;98338.34;;;13.55
20730;BMP280;10526;50.850;12.928;2023-07-08T02:33:06;98323.84;;;13.52
20730;BMP280;10526;50.850;12.928;2023-07-08T02:37:31;98327.72;;;13.47
20730;BMP280;10526;50.850;12.928;2023-07-08T02:41:54;98323.97;;;13.45
20730;BMP280;10526;50.850;12.928;2023-07-08T02:46:16;98327.38;;;13.45
20730;BMP280;10526;50.850;12.928;2023-07-08T02:50:38;98322.44;;;13.44
20730;BMP280;10526;50.850;12.928;2023-07-08T02:55:00;98325.50;;;13.42
20730;BMP280;10526;50.850;12.928;2023-07-08T02:59:22;98318.16;;;13.46
20730;BMP280;10526;50.850;12.928;2023-07-08T03:03:48;98329.91;;;13.56
20730;BMP280;10526;50.850;12.928;2023-07-08T03:08:10;98328.66;;;13.61
20730;BMP280;10526;50.850;12.928;2023-07-08T03:12:32;98328.66;;;13.61
20730;BMP280;10526;50.850;12.928;2023-07-08T03:16:55;98328.28;;;13.62
20730;BMP280;10526;50.850;12.928;2023-07-08T03:21:18;98331.31;;;13.64
20730;BMP280;10526;50.850;12.928;2023-07-08T03:25:40;98326.81;;;13.81
20730;BMP280;10526;50.850;12.928;2023-07-08T03:30:04;98331.41;;;14.47
20730;BMP280;10526;50.850;12.928;2023-07-08T03:34:28;98344.44;;;15.53
20730;BMP280;10526;50.850;12.928;2023-07-08T03:38:56;98347.09;;;16.73
20730;BMP280;10526;50.850;12.928;2023-07-08T03:43:18;98347.09;;;17.84
20730;BMP280;10526;50.850;12.928;2023-07-08T03:47:41;98351.34;;;18.91
20730;BMP280;10526;50.850;12.928;2023-07-08T03:52:04;98351.19;;;19.98
20730;BMP280;10526;50.850;12.928;2023-07-08T03:56:26;98353.00;;;20.95
20730;BMP280;10526;50.850;12.928;2023-07-08T04:00:49;98350.59;;;21.83
20730;BMP280;10526;50.850;12.928;2023-07-08T04:05:16;98356.03;;;22.98
20730;BMP280;10526;50.850;12.928;2023-07-08T04:09:39;98356.91;;;24.33
20730;BMP280;10526;50.850;12.928;2023-07-08T04:14:01;98367.44;;;25.76
20730;BMP280;10526;50.850;12.928;2023-07-08T04:18:23;98360.78;;;26.90
20730;BMP280;10526;50.850;12.928;2023-07-08T04:22:45;98355.84;;;28.01
20730;BMP280;10526;50.850;12.928;2023-07-08T04:27:14;98368.25;;;29.13
20730;BMP280;10526;50.850;12.928;2023-07-08T04:31:37;98375.19;;;30.23
20730;BMP280;10526;50.850;12.928;2023-07-08T04:35:59;98371.25;;;31.18
20730;BMP280;10526;50.850;12.928;2023-07-08T04:40:21;98374.66;;;32.37
20730;BMP280;10526;50.850;12.928;2023-07-08T04:44:44;98376.72;;;33.11
20730;BMP280;10526;50.850;12.928;2023-07-08T04:49:07;98386.38;;;34.18
20730;BMP280;10526;50.850;12.928;2023-07-08T04:53:31;98382.84;;;35.47
20730;BMP280;10526;50.850;12.928;2023-07-08T04:57:53;98392.53;;;36.42
20730;BMP280;10526;50.850;12.928;2023-07-08T05:02:15;98392.91;;;37.29
20730;BMP280;10526;50.850;12.928;2023-07-08T05:06:37;98391.59;;;38.07
20730;BMP280;10526;50.850;12.928;2023-07-08T05:10:59;98399.22;;;38.66
20730;BMP280;10526;50.850;12.928;2023-07-08T05:15:21;98413.59;;;39.24
20730;BMP280;10526;50.850;12.928;2023-07-08T05:19:43;98407.41;;;39.25
20730;BMP280;10526;50.850;12.928;2023-07-08T05:24:07;98416.22;;;39.86
20730;BMP280;10526;50.850;12.928;2023-07-08T05:28:30;98416.38;;;39.45
20730;BMP280;10526;50.850;12.928;2023-07-08T05:32:53;98421.63;;;38.08
20730;BMP280;10526;50.850;12.928;2023-07-08T05:37:15;98417.13;;;35.94
20730;BMP280;10526;50.850;12.928;2023-07-08T05:41:40;98420.16;;;35.46
20730;BMP280;10526;50.850;12.928;2023-07-08T05:46:02;98412.81;;;35.41
20730;BMP280;10526;50.850;12.928;2023-07-08T05:50:33;98411.38;;;35.16
20730;BMP280;10526;50.850;12.928;2023-07-08T05:54:55;98408.41;;;36.15
20730;BMP280;10526;50.850;12.928;2023-07-08T05:59:17;98414.41;;;37.38
20730;BMP280;10526;50.850;12.928;2023-07-08T06:03:39;98405.53;;;38.97
20730;BMP280;10526;50.850;12.928;2023-07-08T06:08:01;98416.78;;;39.73
20730;BMP280;10526;50.850;12.928;2023-07-08T06:12:22;98405.25;;;38.53
20730;BMP280;10526;50.850;12.928;2023-07-08T06:16:45;98408.41;;;39.09
20730;BMP280;10526;50.850;12.928;2023-07-08T06:21:08;98414.03;;;40.87
20730;BMP280;10526;50.850;12.928;2023-07-08T06:25:31;98413.25;;;42.22
20730;BMP280;10526;50.850;12.928;2023-07-08T06:29:54;98416.16;;;43.49
20730;BMP280;10526;50.850;12.928;2023-07-08T06:34:17;98412.25;;;42.98
20730;BMP280;10526;50.850;12.928;2023-07-08T06:38:39;98410.66;;;40.65
20730;BMP280;10526;50.850;12.928;2023-07-08T06:43:03;98411.91;;;40.06
20730;BMP280;10526;50.850;12.928;2023-07-08T06:47:41;98411.69;;;42.19
20730;BMP280;10526;50.850;12.928;2023-07-08T06:52:03;98424.88;;;42.99
20730;BMP280;10526;50.850;12.928;2023-07-08T06:56:25;98425.94;;;44.40
20730;BMP280;10526;50.850;12.928;2023-07-08T07:00:47;98415.97;;;43.16
20730;BMP280;10526;50.850;12.928;2023-07-08T07:05:09;98421.88;;;41.62
20730;BMP280;10526;50.850;12.928;2023-07-08T07:09:31;98426.31;;;41.05
20730;BMP280;10526;50.850;12.928;2023-07-08T07:13:53;98421.53;;;43.30
20730;BMP280;10526;50.850;12.928;2023-07-08T07:18:15;98421.13;;;43.80
20730;BMP280;10526;50.850;12.928;2023-07-08T07:22:37;98420.16;;;44.36
20730;BMP280;10526;50.850;12.928;2023-07-08T07:26:59;98420.25;;;44.72
20730;BMP280;10526;50.850;12.928;2023-07-08T07:31:21;98426.09;;;44.60
20730;BMP280;10526;50.850;12.928;2023-07-08T07:35:44;98422.44;;;45.79
20730;BMP280;10526;50.850;12.928;2023-07-08T07:40:09;98423.03;;;46.35
20730;BMP280;10526;50.850;12.928;2023-07-08T07:44:36;98426.19;;;46.45
20730;BMP280;10526;50.850;12.928;2023-07-08T07:49:00;98412.94;;;48.35
20730;BMP280;10526;50.850;12.928;2023-07-08T07:53:23;98420.88;;;49.66
20730;BMP280;10526;50.850;12.928;2023-07-08T07:57:45;98425.41;;;50.61
20730;BMP280;10526;50.850;12.928;2023-07-08T08:02:09;98417.50;;;49.40
20730;BMP280;10526;50.850;12.928;2023-07-08T08:06:34;98423.31;;;49.46
20730;BMP280;10526;50.850;12.928;2023-07-08T08:10:55;98418.78;;;50.92
20730;BMP280;10526;50.850;12.928;2023-07-08T08:15:17;98422.53;;;52.39
20730;BMP280;10526;50.850;12.928;2023-07-08T08:19:40;98426.28;;;51.21
20730;BMP280;10526;50.850;12.928;2023-07-08T08:24:02;98417.69;;;52.56
20730;BMP280;10526;50.850;12.928;2023-07-08T08:28:24;98430.38;;;51.66
20730;BMP280;10526;50.850;12.928;2023-07-08T08:32:46;98412.50;;;51.00
20730;BMP280;10526;50.850;12.928;2023-07-08T08:37:08;98414.66;;;50.53
20730;BMP280;10526;50.850;12.928;2023-07-08T08:41:33;98422.38;;;51.51
20730;BMP280;10526;50.850;12.928;2023-07-08T08:55:12;98418.53;;;46.47
20730;BMP280;10526;50.850;12.928;2023-07-08T08:59:53;98412.25;;;44.33
20730;BMP280;10526;50.850;12.928;2023-07-08T09:04:33;98417.41;;;41.57
20730;BMP280;10526;50.850;12.928;2023-07-08T09:09:24;98415.50;;;42.92
20730;BMP280;10526;50.850;12.928;2023-07-08T09:13:50;98419.81;;;42.41
20730;BMP280;10526;50.850;12.928;2023-07-08T09:18:27;98407.00;;;43.19
20730;BMP280;10526;50.850;12.928;2023-07-08T09:23:11;98414.69;;;44.40
20730;BMP280;10526;50.850;12.928;2023-07-08T09:27:39;98422.47;;;45.44
20730;BMP280;10526;50.850;12.928;2023-07-08T09:32:19;98421.56;;;44.53
20730;BMP280;10526;50.850;12.928;2023-07-08T09:36:44;98421.31;;;43.84
20730;BMP280;10526;50.850;12.928;2023-07-08T09:41:07;98417.44;;;43.33
20730;BMP280;10526;50.850;12.928;2023-07-08T09:45:29;98416.56;;;43.14
20730;BMP280;10526;50.850;12.928;2023-07-08T09:50:06;98418.00;;;41.56
20730;BMP280;10526;50.850;12.928;2023-07-08T09:54:37;98421.72;;;42.63
20730;BMP280;10526;50.850;12.928;2023-07-08T09:58:58;98425.41;;;44.44
20730;BMP280;10526;50.850;12.928;2023-07-08T10:03:27;98429.88;;;45.90
20730;BMP280;10526;50.850;12.928;2023-07-08T10:07:57;98434.75;;;47.81
20730;BMP280;10526;50.850;12.928;2023-07-08T10:12:20;98433.34;;;49.53
20730;BMP280;10526;50.850;12.928;2023-07-08T10:16:42;98436.25;;;50.33
20730;BMP280;10526;50.850;12.928;2023-07-08T10:21:48;98437.78;;;51.31
20730;BMP280;10526;50.850;12.928;2023-07-08T10:26:28;98427.22;;;48.99
20730;BMP280;10526;50.850;12.928;2023-07-08T10:31:26;98431.00;;;45.46
20730;BMP280;10526;50.850;12.928;2023-07-08T10:45:40;98418.88;;;43.04
20730;BMP280;10526;50.850;12.928;2023-07-08T10:50:30;98420.31;;;43.93
20730;BMP280;10526;50.850;12.928;2023-07-08T10:55:26;98415.78;;;44.49
20730;BMP280;10526;50.850;12.928;2023-07-08T11:09:33;98402.47;;;47.88
20730;BMP280;10526;50.850;12.928;2023-07-08T11:14:23;98393.16;;;45.31
20730;BMP280;10526;50.850;12.928;2023-07-08T11:23:38;98382.25;;;39.14
20730;BMP280;10526;50.850;12.928;2023-07-08T11:28:05;98380.53;;;37.03
20730;BMP280;10526;50.850;12.928;2023-07-08T11:32:33;98377.22;;;35.13
20730;BMP280;10526;50.850;12.928;2023-07-08T11:36:56;98381.91;;;34.38
20730;BMP280;10526;50.850;12.928;2023-07-08T11:41:22;98369.03;;;34.25
20730;BMP280;10526;50.850;12.928;2023-07-08T11:45:44;98379.81;;;34.54
20730;BMP280;10526;50.850;12.928;2023-07-08T11:50:28;98371.38;;;33.97
20730;BMP280;10526;50.850;12.928;2023-07-08T11:55:12;98370.38;;;34.17
20730;BMP280;10526;50.850;12.928;2023-07-08T11:59:40;98358.34;;;33.44
20730;BMP280;10526;50.850;12.928;2023-07-08T12:08:37;98362.03;;;33.39
20730;BMP280;10526;50.850;12.928;2023-07-08T12:13:02;98347.47;;;33.15
20730;BMP280;10526;50.850;12.928;2023-07-08T12:17:25;98345.50;;;32.65
20730;BMP280;10526;50.850;12.928;2023-07-08T12:21:47;98345.00;;;32.23
20730;BMP280;10526;50.850;12.928;2023-07-08T12:26:12;98340.34;;;32.10
20730;BMP280;10526;50.850;12.928;2023-07-08T12:30:34;98349.44;;;32.77
20730;BMP280;10526;50.850;12.928;2023-07-08T12:34:56;98342.69;;;33.39
20730;BMP280;10526;50.850;12.928;2023-07-08T12:39:18;98339.91;;;33.54
20730;BMP280;10526;50.850;12.928;2023-07-08T12:43:40;98338.44;;;33.45
20730;BMP280;10526;50.850;12.928;2023-07-08T12:48:03;98325.00;;;33.34
20730;BMP280;10526;50.850;12.928;2023-07-08T12:52:24;98334.75;;;33.66
20730;BMP280;10526;50.850;12.928;2023-07-08T12:56:47;98331.66;;;33.46
20730;BMP280;10526;50.850;12.928;2023-07-08T13:01:19;98332.38;;;33.09
20730;BMP280;10526;50.850;12.928;2023-07-08T13:05:48;98330.88;;;32.85
20730;BMP280;10526;50.850;12.928;2023-07-08T13:10:20;98323.34;;;32.93
20730;BMP280;10526;50.850;12.928;2023-07-08T13:14:43;98339.06;;;32.55
20730;BMP280;10526;50.850;12.928;2023-07-08T13:19:07;98327.13;;;32.16
20730;BMP280;10526;50.850;12.928;2023-07-08T13:23:31;98321.66;;;31.88
20730;BMP280;10526;50.850;12.928;2023-07-08T13:28:00;98323.19;;;31.47
20730;BMP280;10526;50.850;12.928;2023-07-08T13:32:30;98312.56;;;31.23
20730;BMP280;10526;50.850;12.928;2023-07-08T13:36:54;98309.03;;;31.43
20730;BMP280;10526;50.850;12.928;2023-07-08T13:41:22;98303.66;;;31.58
20730;BMP280;10526;50.850;12.928;2023-07-08T13:45:46;98305.81;;;31.52
20730;BMP280;10526;50.850;12.928;2023-07-08T13:50:29;98305.34;;;30.99
20730;BMP280;10526;50.850;12.928;2023-07-08T13:55:00;98295.69;;;31.06
20730;BMP280;10526;50.850;12.928;2023-07-08T13:59:25;98299.25;;;31.14
20730;BMP280;10526;50.850;12.928;2023-07-08T14:03:49;98293.19;;;31.15
20730;BMP280;10526;50.850;12.928;2023-07-08T14:08:15;98298.69;;;31.36
20730;BMP280;10526;50.850;12.928;2023-07-08T14:12:39;98297.69;;;31.68
20730;BMP280;10526;50.850;12.928;2023-07-08T14:17:01;98302.78;;;31.92
20730;BMP280;10526;50.850;12.928;2023-07-08T14:21:24;98305.41;;;32.05
20730;BMP280;10526;50.850;12.928;2023-07-08T14:25:46;98302.03;;;31.91
20730;BMP280;10526;50.850;12.928;2023-07-08T14:30:10;98300.50;;;31.83
20730;BMP280;10526;50.850;12.928;2023-07-08T14:34:33;98305.81;;;32.17
20730;BMP280;10526;50.850;12.928;2023-07-08T14:38:55;98308.72;;;32.11
20730;BMP280;10526;50.850;12.928;2023-07-08T14:43:27;98307.72;;;32.29
20730;BMP280;10526;50.850;12.928;2023-07-08T14:47:49;98294.25;;;32.77
20730;BMP280;10526;50.850;12.928;2023-07-08T14:52:11;98303.47;;;33.10
20730;BMP280;10526;50.850;12.928;2023-07-08T14:56:33;98299.03;;;33.14
20730;BMP280;10526;50.850;12.928;2023-07-08T15:00:57;98290.25;;;33.01
20730;BMP280;10526;50.850;12.928;2023-07-08T15:05:26;98287.44;;;32.78
20730;BMP280;10526;50.850;12.928;2023-07-08T15:09:49;98285.97;;;32.11
20730;BMP280;10526;50.850;12.928;2023-07-08T15:14:24;98286.44;;;31.65
20730;BMP280;10526;50.850;12.928;2023-07-08T15:18:47;98288.38;;;31.86
20730;BMP280;10526;50.850;12.928;2023-07-08T15:23:13;98279.66;;;31.66
20730;BMP280;10526;50.850;12.928;2023-07-08T15:27:35;98281.16;;;31.47
20730;BMP280;10526;50.850;12.928;2023-07-08T15:31:57;98285.81;;;31.31
20730;BMP280;10526;50.850;12.928;2023-07-08T15:36:19;98275.72;;;31.26
20730;BMP280;10526;50.850;12.928;2023-07-08T15:40:41;98284.75;;;30.92
20730;BMP280;10526;50.850;12.928;2023-07-08T15:45:22;98281.47;;;30.60
20730;BMP280;10526;50.850;12.928;2023-07-08T15:49:45;98280.59;;;30.65
20730;BMP280;10526;50.850;12.928;2023-07-08T15:54:07;98276.59;;;30.66
20730;BMP280;10526;50.850;12.928;2023-07-08T15:58:32;98274.97;;;30.50
20730;BMP280;10526;50.850;12.928;2023-07-08T16:03:00;98279.97;;;30.25
20730;BMP280;10526;50.850;12.928;2023-07-08T16:07:23;98280.72;;;30.12
20730;BMP280;10526;50.850;12.928;2023-07-08T16:11:45;98267.06;;;30.20
20730;BMP280;10526;50.850;12.928;2023-07-08T16:16:12;98275.94;;;30.26
20730;BMP280;10526;50.850;12.928;2023-07-08T16:20:35;98278.78;;;30.21
20730;BMP280;10526;50.850;12.928;2023-07-08T16:24:57;98273.75;;;30.11
20730;BMP280;10526;50.850;12.928;2023-07-08T16:29:26;98279.44;;;30.13
20730;BMP280;10526;50.850;12.928;2023-07-08T16:33:50;98281.38;;;29.92
20730;BMP280;10526;50.850;12.928;2023-07-08T16:38:12;98274.38;;;29.91
20730;BMP280;10526;50.850;12.928;2023-07-08T16:42:35;98274.16;;;29.89
20730;BMP280;10526;50.850;12.928;2023-07-08T16:46:57;98264.16;;;29.92
20730;BMP280;10526;50.850;12.928;2023-07-08T16:51:26;98272.91;;;29.90
20730;BMP280;10526;50.850;12.928;2023-07-08T16:55:49;98266.38;;;29.93
20730;BMP280;10526;50.850;12.928;2023-07-08T17:00:18;98270.69;;;29.89
20730;BMP280;10526;50.850;12.928;2023-07-08T17:04:43;98273.00;;;29.71
20730;BMP280;10526;50.850;12.928;2023-07-08T17:09:05;98264.44;;;29.62
20730;BMP280;10526;50.850;12.928;2023-07-08T17:13:28;98265.16;;;29.49
20730;BMP280;10526;50.850;12.928;2023-07-08T17:17:53;98271.78;;;29.40
20730;BMP280;10526;50.850;12.928;2023-07-08T17:22:15;98268.72;;;29.31
20730;BMP280;10526;50.850;12.928;2023-07-08T17:26:38;98269.84;;;29.22
20730;BMP280;10526;50.850;12.928;2023-07-08T17:31:00;98260.28;;;29.10
20730;BMP280;10526;50.850;12.928;2023-07-08T17:35:25;98263.44;;;29.01
20730;BMP280;10526;50.850;12.928;2023-07-08T17:39:47;98264.34;;;28.90
20730;BMP280;10526;50.850;12.928;2023-07-08T17:44:10;98263.44;;;28.82
20730;BMP280;10526;50.850;12.928;2023-07-08T17:48:32;98272.59;;;28.71
20730;BMP280;10526;50.850;12.928;2023-07-08T17:52:56;98266.72;;;28.62
20730;BMP280;10526;50.850;12.928;2023-07-08T17:57:18;98265.38;;;28.50
20730;BMP280;10526;50.850;12.928;2023-07-08T18:01:41;98266.28;;;28.39
20730;BMP280;10526;50.850;12.928;2023-07-08T18:06:03;98268.91;;;28.26
20730;BMP280;10526;50.850;12.928;2023-07-08T18:10:28;98268.31;;;28.14
20730;BMP280;10526;50.850;12.928;2023-07-08T18:14:50;98260.47;;;27.99
20730;BMP280;10526;50.850;12.928;2023-07-08T18:19:12;98264.38;;;27.85
20730;BMP280;10526;50.850;12.928;2023-07-08T18:23:34;98261.28;;;27.70
20730;BMP280;10526;50.850;12.928;2023-07-08T18:27:56;98273.34;;;27.56
20730;BMP280;10526;50.850;12.928;2023-07-08T18:32:18;98274.25;;;27.40
20730;BMP280;10526;50.850;12.928;2023-07-08T18:36:40;98268.38;;;27.24
20730;BMP280;10526;50.850;12.928;2023-07-08T18:41:03;98267.25;;;27.03
20730;BMP280;10526;50.850;12.928;2023-07-08T18:45:26;98266.88;;;26.82
20730;BMP280;10526;50.850;12.928;2023-07-08T18:49:49;98266.00;;;26.57
20730;BMP280;10526;50.850;12.928;2023-07-08T18:54:20;98271.56;;;26.35
20730;BMP280;10526;50.850;12.928;2023-07-08T18:58:45;98271.84;;;26.15
20730;BMP280;10526;50.850;12.928;2023-07-08T19:03:28;98270.41;;;25.91
20730;BMP280;10526;50.850;12.928;2023-07-08T19:07:52;98275.13;;;25.63
20730;BMP280;10526;50.850;12.928;2023-07-08T19:12:23;98291.72;;;25.37
20730;BMP280;10526;50.850;12.928;2023-07-08T19:16:45;98290.19;;;25.08
20730;BMP280;10526;50.850;12.928;2023-07-08T19:21:26;98292.09;;;24.80
20730;BMP280;10526;50.850;12.928;2023-07-08T19:25:48;98291.91;;;24.46
20730;BMP280;10526;50.850;12.928;2023-07-08T19:30:12;98299.88;;;24.18
20730;BMP280;10526;50.850;12.928;2023-07-08T19:34:34;98302.13;;;23.88
20730;BMP280;10526;50.850;12.928;2023-07-08T19:38:56;98308.06;;;23.61
20730;BMP280;10526;50.850;12.928;2023-07-08T19:43:19;98307.06;;;23.33
20730;BMP280;10526;50.850;12.928;2023-07-08T19:47:42;98314.41;;;23.06
20730;BMP280;10526;50.850;12.928;2023-07-08T19:52:05;98319.56;;;22.84
20730;BMP280;10526;50.850;12.928;2023-07-08T19:56:27;98320.28;;;22.64
20730;BMP280;10526;50.850;12.928;2023-07-08T20:00:51;98319.78;;;22.45
20730;BMP280;10526;50.850;12.928;2023-07-08T20:05:13;98327.19;;;22.30
20730;BMP280;10526;50.850;12.928;2023-07-08T20:09:35;98324.97;;;22.14
20730;BMP280;10526;50.850;12.928;2023-07-08T20:13:57;98334.13;;;22.02
20730;BMP280;10526;50.850;12.928;2023-07-08T20:18:30;98336.66;;;21.90
20730;BMP280;10526;50.850;12.928;2023-07-08T20:22:53;98330.72;;;21.77
20730;BMP280;10526;50.850;12.928;2023-07-08T20:27:15;98341.09;;;21.64
20730;BMP280;10526;50.850;12.928;2023-07-08T20:31:38;98351.72;;;21.53
20730;BMP280;10526;50.850;12.928;2023-07-08T20:36:00;98348.50;;;21.40
20730;BMP280;10526;50.850;12.928;2023-07-08T20:40:26;98344.22;;;21.24
20730;BMP280;10526;50.850;12.928;2023-07-08T20:44:48;98348.41;;;21.10
20730;BMP280;10526;50.850;12.928;2023-07-08T20:49:10;98352.38;;;21.00
20730;BMP280;10526;50.850;12.928;2023-07-08T20:53:32;98362.03;;;20.92
20730;BMP280;10526;50.850;12.928;2023-07-08T20:57:54;98361.78;;;20.81
20730;BMP280;10526;50.850;12.928;2023-07-08T21:02:23;98357.44;;;20.74
20730;BMP280;10526;50.850;12.928;2023-07-08T21:06:46;98361.25;;;20.58
20730;BMP280;10526;50.850;12.928;2023-07-08T21:11:10;98364.00;;;20.49
20730;BMP280;10526;50.850;12.928;2023-07-08T21:15:32;98369.59;;;20.46
20730;BMP280;10526;50.850;12.928;2023-07-08T21:19:54;98374.81;;;20.49
20730;BMP280;10526;50.850;12.928;2023-07-08T21:24:18;98373.31;;;20.48
20730;BMP280;10526;50.850;12.928;2023-07-08T21:28:40;98374.81;;;20.49
20730;BMP280;10526;50.850;12.928;2023-07-08T21:33:07;98380.66;;;20.57
20730;BMP280;10526;50.850;12.928;2023-07-08T21:37:29;98376.59;;;20.61
20730;BMP280;10526;50.850;12.928;2023-07-08T21:41:51;98374.53;;;20.56
20730;BMP280;10526;50.850;12.928;2023-07-08T21:46:14;98384.44;;;20.50
20730;BMP280;10526;50.850;12.928;2023-07-08T21:50:57;98380.88;;;20.35
20730;BMP280;10526;50.850;12.928;2023-07-08T21:55:22;98394.72;;;20.19
20730;BMP280;10526;50.850;12.928;2023-07-08T21:59:44;98397.59;;;20.06
20730;BMP280;10526;50.850;12.928;2023-07-08T22:04:10;98384.22;;;19.93
20730;BMP280;10526;50.850;12.928;2023-07-08T22:08:32;98386.63;;;19.82
20730;BMP280;10526;50.850;12.928;2023-07-08T22:12:55;98389.00;;;19.71
20730;BMP280;10526;50.850;12.928;2023-07-08T22:17:16;98392.59;;;19.59
20730;BMP280;10526;50.850;12.928;2023-07-08T22:21:38;98395.91;;;19.44
20730;BMP280;10526;50.850;12.928;2023-07-08T22:26:01;98396.00;;;19.32
20730;BMP280;10526;50.850;12.928;2023-07-08T22:30:23;98389.53;;;19.20
20730;BMP280;10526;50.850;12.928;2023-07-08T22:34:45;98392.97;;;19.11
20730;BMP280;10526;50.850;12.928;2023-07-08T22:39:09;98391.09;;;18.99
20730;BMP280;10526;50.850;12.928;2023-07-08T22:43:31;98388.97;;;18.94
20730;BMP280;10526;50.850;12.928;2023-07-08T22:47:53;98399.66;;;18.98
20730;BMP280;10526;50.850;12.928;2023-07-08T22:52:30;98399.47;;;18.92
20730;BMP280;10526;50.850;12.928;2023-07-08T22:56:54;98400.19;;;18.83
20730;BMP280;10526;50.850;12.928;2023-07-08T23:01:16;98389.16;;;18.69
20730;BMP280;10526;50.850;12.928;2023-07-08T23:05:38;98401.22;;;18.55
20730;BMP280;10526;50.850;12.928;2023-07-08T23:10:01;98404.72;;;18.43
20730;BMP280;10526;50.850;12.928;2023-07-08T23:14:23;98408.56;;;18.33
20730;BMP280;10526;50.850;12.928;2023-07-08T23:18:50;98396.97;;;18.23
20730;BMP280;10526;50.850;12.928;2023-07-08T23:23:13;98402.47;;;18.19
20730;BMP280;10526;50.850;12.928;2023-07-08T23:27:35;98396.44;;;18.15
20730;BMP280;10526;50.850;12.928;2023-07-08T23:31:59;98403.69;;;18.06
20730;BMP280;10526;50.850;12.928;2023-07-08T23:36:40;98405.56;;;17.96
20730;BMP280;10526;50.850;12.928;2023-07-08T23:41:02;98405.19;;;17.85
20730;BMP280;10526;50.850;12.928;2023-07-08T23:45:24;98408.44;;;17.80
20730;BMP280;10526;50.850;12.928;2023-07-08T23:49:47;98406.16;;;17.78
20730;BMP280;10526;50.850;12.928;2023-07-08T23:54:32;98395.59;;;17.84
20730;BMP280;10526;50.850;12.928;2023-07-08T23:58:55;98402.50;;;17.72
